Time;durP1;ratioP1;P1;durP2;ratioP2;P2;SDS_P1;SDS_P2;PMS_P1;PMS_P2;Temp;Humidity;BMP_temperature;BMP_pressure;BME280_temperature;BME280_humidity;BME280_pressure;Samples;Min_cycle;Max_cycle;Signal;HPM_P1;HPM_P2
2024/01/13 00:01:21;;;;;;;19.02;5.20;;;32.60;90.30;;;;;;4944097;28;20074;-74
2024/01/13 00:03:49;;;;;;;22.33;4.50;;;32.90;88.90;;;;;;4949274;28;20027;-74
2024/01/13 00:06:16;;;;;;;16.75;3.60;;;33.30;89.90;;;;;;4948580;29;20027;-71
2024/01/13 00:08:43;;;;;;;14.10;3.70;;;33.50;81.70;;;;;;4948836;28;20473;-72
2024/01/13 00:11:11;;;;;;;10.25;3.28;;;32.80;82.40;;;;;;4946897;29;20045;-72
2024/01/13 00:13:38;;;;;;;10.25;3.80;;;32.90;82.40;;;;;;4950528;28;20032;-72
2024/01/13 00:16:06;;;;;;;21.10;5.18;;;32.70;83.80;;;;;;4941128;28;20027;-72
2024/01/13 00:18:33;;;;;;;12.90;3.40;;;32.80;83.40;;;;;;4944289;28;20037;-72
2024/01/13 00:21:00;;;;;;;12.57;3.33;;;32.90;82.40;;;;;;4947300;28;20106;-72
2024/01/13 00:23:28;;;;;;;11.07;3.28;;;33.40;80.80;;;;;;4947195;28;20102;-72
2024/01/13 00:25:55;;;;;;;15.38;3.22;;;33.60;81.10;;;;;;4943453;28;20031;-72
2024/01/13 00:28:22;;;;;;;11.38;3.17;;;33.50;80.40;;;;;;4943481;28;20409;-72
2024/01/13 00:30:50;;;;;;;6.63;1.88;;;33.50;80.20;;;;;;4947717;28;20024;-71
2024/01/13 00:33:17;;;;;;;11.45;2.65;;;33.50;77.00;;;;;;4949938;28;20031;-72
2024/01/13 00:35:44;;;;;;;9.57;2.25;;;33.30;75.30;;;;;;4950043;28;20380;-71
2024/01/13 00:38:12;;;;;;;9.07;2.67;;;32.90;78.50;;;;;;4949248;28;20047;-72
2024/01/13 00:40:39;;;;;;;14.05;2.67;;;33.10;77.20;;;;;;4952203;28;20032;-72
2024/01/13 00:43:06;;;;;;;10.15;2.45;;;33.40;77.40;;;;;;4944440;28;20035;-73
2024/01/13 00:45:34;;;;;;;11.80;3.50;;;33.70;73.80;;;;;;4943387;28;20128;-73
2024/01/13 00:48:02;;;;;;;10.70;2.33;;;33.70;76.20;;;;;;4945010;28;20043;-73
2024/01/13 00:50:29;;;;;;;13.73;3.17;;;33.90;75.90;;;;;;4945585;28;20031;-72
2024/01/13 00:52:57;;;;;;;12.95;3.05;;;34.10;73.30;;;;;;4952017;29;20492;-72
2024/01/13 00:55:24;;;;;;;10.57;3.50;;;34.10;73.70;;;;;;4949184;28;20511;-71
2024/01/13 00:57:51;;;;;;;10.52;3.15;;;33.00;75.00;;;;;;4950723;28;20047;-72
2024/01/13 01:00:19;;;;;;;9.80;2.97;;;33.30;76.80;;;;;;4945966;28;20110;-71
2024/01/13 01:02:46;;;;;;;8.00;2.65;;;33.60;74.20;;;;;;4948167;28;20035;-71
2024/01/13 01:05:14;;;;;;;7.75;2.70;;;33.90;74.20;;;;;;4948116;28;20034;-73
2024/01/13 01:07:41;;;;;;;10.77;2.83;;;33.90;76.50;;;;;;4946025;29;20023;-72
2024/01/13 01:10:09;;;;;;;13.32;3.30;;;33.90;74.80;;;;;;4949902;28;20042;-73
2024/01/13 01:12:36;;;;;;;14.18;3.10;;;34.40;75.30;;;;;;4948716;28;20054;-73
2024/01/13 01:15:04;;;;;;;9.55;3.03;;;34.70;74.50;;;;;;4949119;28;20020;-73
2024/01/13 01:17:31;;;;;;;11.52;2.85;;;34.70;72.00;;;;;;4947876;28;20498;-72
2024/01/13 01:19:59;;;;;;;13.95;2.83;;;34.80;72.00;;;;;;4948655;28;20028;-73
2024/01/13 01:22:26;;;;;;;6.65;2.20;;;35.10;73.70;;;;;;4950821;28;20031;-73
2024/01/13 01:24:53;;;;;;;10.50;2.75;;;35.40;71.80;;;;;;4948829;29;20035;-73
2024/01/13 01:27:21;;;;;;;10.52;2.72;;;35.30;70.00;;;;;;4951574;28;20033;-73
2024/01/13 01:29:48;;;;;;;13.00;3.30;;;35.40;68.20;;;;;;4948984;29;20118;-74
2024/01/13 01:32:15;;;;;;;8.68;2.53;;;35.40;67.60;;;;;;4947547;28;20031;-72
2024/01/13 01:34:43;;;;;;;12.75;3.13;;;35.70;67.80;;;;;;4948043;29;20045;-71
2024/01/13 01:37:10;;;;;;;10.40;2.85;;;35.40;68.30;;;;;;4948851;28;20039;-71
2024/01/13 01:39:37;;;;;;;12.32;3.17;;;35.00;67.70;;;;;;4946515;29;20023;-71
2024/01/13 01:42:05;;;;;;;9.00;2.70;;;34.90;68.20;;;;;;4949290;28;20042;-71
2024/01/13 01:44:33;;;;;;;11.07;3.10;;;35.20;70.30;;;;;;4946782;29;20035;-73
2024/01/13 01:47:00;;;;;;;9.60;3.35;;;35.70;71.00;;;;;;4946332;29;20030;-73
2024/01/13 01:49:28;;;;;;;11.07;2.83;;;36.10;70.40;;;;;;4949150;28;20035;-73
2024/01/13 01:51:56;;;;;;;9.05;2.80;;;36.40;70.00;;;;;;4943733;28;20151;-74
2024/01/13 01:54:23;;;;;;;8.65;2.92;;;36.70;63.10;;;;;;4949138;28;20051;-74
2024/01/13 01:56:51;;;;;;;10.60;2.75;;;36.30;63.50;;;;;;4946237;28;20035;-73
2024/01/13 01:59:18;;;;;;;8.88;2.70;;;36.10;64.90;;;;;;4948959;28;20134;-72
2024/01/13 02:01:47;;;;;;;8.43;3.10;;;35.90;62.90;;;;;;4947211;29;20689;-72
2024/01/13 02:04:15;;;;;;;6.40;2.00;;;35.70;62.10;;;;;;4948840;28;20500;-73
2024/01/13 02:06:43;;;;;;;6.40;2.55;;;35.30;62.40;;;;;;4943596;28;20027;-73
2024/01/13 02:09:14;;;;;;;10.38;2.58;;;35.70;63.00;;;;;;4962881;28;20512;-74
2024/01/13 02:11:42;;;;;;;8.50;2.70;;;35.60;61.60;;;;;;4945767;29;20114;-73
2024/01/13 02:14:10;;;;;;;8.52;2.67;;;35.60;62.50;;;;;;4944023;29;20031;-72
2024/01/13 02:16:38;;;;;;;15.07;3.05;;;35.60;61.80;;;;;;4944529;28;20058;-75
2024/01/13 02:19:07;;;;;;;11.20;3.05;;;35.70;60.70;;;;;;4944936;29;20421;-72
2024/01/13 02:21:41;;;;;;;8.55;2.92;;;36.00;58.00;;;;;;4943747;29;20531;-74
2024/01/13 02:24:08;;;;;;;9.77;2.55;;;35.60;58.50;;;;;;4946669;29;20032;-73
2024/01/13 02:26:37;;;;;;;10.07;3.17;;;35.70;57.70;;;;;;4944133;29;20035;-73
2024/01/13 02:29:08;;;;;;;6.28;2.55;;;35.70;57.80;;;;;;4945001;29;20027;-74
2024/01/13 02:31:36;;;;;;;6.18;2.67;;;35.60;57.40;;;;;;4944372;29;20039;-72
2024/01/13 02:34:03;;;;;;;7.20;2.53;;;35.60;59.20;;;;;;4943714;29;20035;-74
2024/01/13 02:36:34;;;;;;;6.50;2.45;;;36.40;60.30;;;;;;4945663;28;20027;-77
2024/01/13 02:39:02;;;;;;;12.35;2.88;;;36.60;57.20;;;;;;4944798;28;20043;-76
2024/01/13 02:41:30;;;;;;;7.22;2.60;;;36.50;56.20;;;;;;4941763;29;20536;-71
2024/01/13 02:43:58;;;;;;;10.38;2.83;;;36.70;55.40;;;;;;4940055;28;20027;-71
2024/01/13 02:46:27;;;;;;;11.75;3.33;;;37.00;59.10;;;;;;4946137;28;20684;-73
2024/01/13 02:48:57;;;;;;;7.53;2.17;;;37.30;57.40;;;;;;4931396;29;20078;-72
2024/01/13 02:51:27;;;;;;;12.43;2.83;;;37.50;57.10;;;;;;4941488;28;20122;-73
2024/01/13 02:53:55;;;;;;;7.03;2.42;;;37.80;56.50;;;;;;4948253;28;20054;-74
2024/01/13 02:56:23;;;;;;;5.32;2.42;;;38.00;54.80;;;;;;4949113;28;20108;-73
2024/01/13 02:58:51;;;;;;;9.63;2.58;;;38.20;52.80;;;;;;4947977;28;20040;-74
2024/01/13 03:01:19;;;;;;;10.07;2.80;;;37.80;52.50;;;;;;4946154;28;20039;-73
2024/01/13 03:03:49;;;;;;;10.82;2.53;;;37.80;54.50;;;;;;4948489;29;20027;-74
2024/01/13 03:06:17;;;;;;;6.47;2.78;;;38.00;53.10;;;;;;4947366;29;20031;-73
2024/01/13 03:08:46;;;;;;;13.48;3.20;;;37.80;53.20;;;;;;4948396;29;20053;-74
2024/01/13 03:11:15;;;;;;;7.55;2.67;;;38.00;54.50;;;;;;4946704;28;20469;-74
2024/01/13 03:13:45;;;;;;;7.35;2.63;;;37.90;53.10;;;;;;4949815;28;20070;-73
2024/01/13 03:16:14;;;;;;;11.32;2.45;;;37.70;51.10;;;;;;4943918;28;20063;-73
2024/01/13 03:18:42;;;;;;;6.70;2.47;;;37.70;52.80;;;;;;4946012;28;20036;-72
2024/01/13 03:21:12;;;;;;;9.50;2.50;;;37.70;54.30;;;;;;4946798;28;20357;-72
2024/01/13 03:23:41;;;;;;;8.55;2.55;;;38.00;53.60;;;;;;4948478;28;20019;-73
2024/01/13 03:26:09;;;;;;;9.32;2.63;;;38.20;51.00;;;;;;4947790;29;20024;-73
2024/01/13 03:28:37;;;;;;;7.88;2.03;;;38.30;51.20;;;;;;4950218;28;20065;-73
2024/01/13 03:31:14;;;;;;;8.05;2.15;;;38.60;47.60;;;;;;4945551;29;20063;-72
2024/01/13 03:33:42;;;;;;;6.57;2.10;;;38.40;48.80;;;;;;4945034;28;20151;-73
2024/01/13 03:36:10;;;;;;;5.72;2.00;;;38.40;47.40;;;;;;4946098;28;20041;-73
2024/01/13 03:38:39;;;;;;;5.57;1.92;;;38.10;47.30;;;;;;4944958;29;20046;-72
2024/01/13 03:41:07;;;;;;;6.30;2.20;;;38.40;47.60;;;;;;4947378;28;20042;-71
2024/01/13 03:43:35;;;;;;;8.45;2.20;;;38.50;49.90;;;;;;4944085;29;20064;-72
2024/01/13 03:46:04;;;;;;;7.15;2.22;;;38.70;46.10;;;;;;4944975;29;20027;-72
2024/01/13 03:48:31;;;;;;;6.03;2.13;;;38.20;47.40;;;;;;4947213;29;20030;-73
2024/01/13 03:51:00;;;;;;;7.70;2.30;;;38.00;47.70;;;;;;4947420;28;20393;-72
2024/01/13 03:53:28;;;;;;;9.05;2.58;;;38.10;49.70;;;;;;4955815;28;20592;-72
2024/01/13 03:55:56;;;;;;;7.82;2.35;;;38.30;50.70;;;;;;4945091;28;20457;-71
2024/01/13 03:58:23;;;;;;;4.80;2.13;;;38.30;47.50;;;;;;4944419;28;20055;-72
2024/01/13 04:00:51;;;;;;;6.47;2.40;;;38.10;46.80;;;;;;4942918;28;20082;-70
2024/01/13 04:03:18;;;;;;;6.95;2.40;;;37.70;47.00;;;;;;4941759;28;20031;-72
2024/01/13 04:05:45;;;;;;;10.40;2.63;;;37.80;50.50;;;;;;4948036;28;20035;-70
2024/01/13 04:08:13;;;;;;;8.30;1.98;;;37.90;51.40;;;;;;4945394;28;20102;-72
2024/01/13 04:10:40;;;;;;;8.50;2.55;;;38.20;49.00;;;;;;4951461;28;20385;-72
2024/01/13 04:13:13;;;;;;;4.78;2.30;;;38.20;47.70;;;;;;4944655;28;20032;-73
2024/01/13 04:15:40;;;;;;;7.93;2.72;;;38.20;48.40;;;;;;4944187;28;20027;-71
2024/01/13 04:18:08;;;;;;;7.28;2.40;;;38.60;50.40;;;;;;4952136;28;20047;-72
2024/01/13 04:20:35;;;;;;;7.60;2.80;;;38.60;51.70;;;;;;4947981;28;20042;-72
2024/01/13 04:23:03;;;;;;;13.10;2.83;;;38.20;47.70;;;;;;4949941;28;20069;-73
2024/01/13 04:25:31;;;;;;;8.80;2.60;;;38.10;49.30;;;;;;4947842;28;20034;-73
2024/01/13 04:28:01;;;;;;;8.80;2.97;;;38.10;48.80;;;;;;4949083;28;20032;-73
2024/01/13 04:30:29;;;;;;;8.75;2.50;;;38.20;50.20;;;;;;4950942;28;20080;-72
2024/01/13 04:32:57;;;;;;;7.32;2.67;;;38.30;50.30;;;;;;4950173;28;20031;-72
2024/01/13 04:35:24;;;;;;;8.00;2.53;;;38.40;49.10;;;;;;4948116;28;20823;-70
2024/01/13 04:37:52;;;;;;;11.10;2.40;;;38.10;48.30;;;;;;4955091;28;20039;-71
2024/01/13 04:40:19;;;;;;;9.98;2.60;;;38.10;47.70;;;;;;4950865;29;20035;-72
2024/01/13 04:42:46;;;;;;;8.98;2.65;;;38.00;47.60;;;;;;4946486;29;20027;-72
2024/01/13 04:45:14;;;;;;;10.68;2.85;;;37.50;50.80;;;;;;4949914;29;20086;-73
2024/01/13 04:47:41;;;;;;;10.43;2.35;;;37.70;52.60;;;;;;4950541;29;20094;-73
2024/01/13 04:50:09;;;;;;;7.13;2.67;;;37.90;51.80;;;;;;4951738;28;20086;-73
2024/01/13 04:52:37;;;;;;;9.90;2.88;;;38.10;53.00;;;;;;4949319;28;20481;-72
2024/01/13 04:55:05;;;;;;;8.07;2.67;;;38.10;52.80;;;;;;4952960;28;20053;-72
2024/01/13 04:57:32;;;;;;;8.10;2.33;;;38.10;53.40;;;;;;4948580;29;20040;-71
2024/01/13 05:00:00;;;;;;;8.65;2.50;;;38.10;55.10;;;;;;4948027;28;20047;-71
2024/01/13 05:02:27;;;;;;;6.55;1.85;;;38.10;55.40;;;;;;4952513;28;20020;-73
2024/01/13 05:04:54;;;;;;;8.10;2.22;;;38.20;56.60;;;;;;4949539;29;20031;-72
2024/01/13 05:07:22;;;;;;;10.45;2.38;;;38.00;58.00;;;;;;4952858;28;20033;-72
2024/01/13 05:09:50;;;;;;;6.22;1.75;;;37.90;57.80;;;;;;4949970;28;20472;-72
2024/01/13 05:12:17;;;;;;;7.63;1.85;;;37.60;58.20;;;;;;4948650;28;20078;-72
2024/01/13 05:14:46;;;;;;;9.30;1.95;;;37.60;59.70;;;;;;4947033;28;20037;-71
2024/01/13 05:17:14;;;;;;;6.88;1.52;;;37.40;58.60;;;;;;4948724;28;20078;-71
2024/01/13 05:19:41;;;;;;;7.55;1.63;;;37.20;60.00;;;;;;4949843;28;20035;-70
2024/01/13 05:22:08;;;;;;;10.48;2.15;;;37.10;60.90;;;;;;4949958;28;20086;-72
2024/01/13 05:24:36;;;;;;;8.70;1.52;;;37.00;59.80;;;;;;4949413;29;20085;-72
2024/01/13 05:27:03;;;;;;;10.07;1.90;;;36.90;60.10;;;;;;4949214;28;20503;-72
2024/01/13 05:29:31;;;;;;;12.05;1.90;;;36.70;61.20;;;;;;4953392;29;20057;-71
2024/01/13 05:31:58;;;;;;;11.25;2.25;;;36.60;62.80;;;;;;4946263;28;20027;-71
2024/01/13 05:34:25;;;;;;;6.50;1.65;;;36.70;62.50;;;;;;4951241;28;20023;-71
2024/01/13 05:36:53;;;;;;;10.68;1.95;;;36.60;61.70;;;;;;4948907;28;20059;-72
2024/01/13 05:39:20;;;;;;;8.18;2.10;;;36.40;62.00;;;;;;4943916;28;20393;-72
2024/01/13 05:41:48;;;;;;;7.18;1.77;;;36.60;62.40;;;;;;4958791;28;20035;-71
2024/01/13 05:44:15;;;;;;;4.80;1.25;;;36.50;62.40;;;;;;4941380;28;20027;-72
2024/01/13 05:46:42;;;;;;;10.05;2.05;;;36.30;62.10;;;;;;4947358;29;20023;-72
2024/01/13 05:49:10;;;;;;;8.02;1.63;;;36.20;61.90;;;;;;4940855;28;20031;-72
2024/01/13 05:51:37;;;;;;;9.85;1.88;;;36.10;62.10;;;;;;4941946;28;20412;-71
2024/01/13 05:54:05;;;;;;;8.65;1.95;;;35.90;62.20;;;;;;4940708;28;20061;-73
2024/01/13 05:56:32;;;;;;;7.30;1.48;;;35.80;63.00;;;;;;4948675;28;20035;-71
2024/01/13 05:59:00;;;;;;;10.68;2.20;;;35.60;63.50;;;;;;4946085;28;20425;-71
2024/01/13 06:01:27;;;;;;;8.38;1.60;;;35.70;63.80;;;;;;4950422;28;20023;-69
2024/01/13 06:03:54;;;;;;;6.28;1.98;;;35.70;63.30;;;;;;4942973;28;20031;-70
2024/01/13 06:06:22;;;;;;;10.48;2.05;;;35.40;63.80;;;;;;4944501;28;20074;-71
2024/01/13 06:08:49;;;;;;;7.88;1.70;;;35.30;62.80;;;;;;4944524;28;20129;-71
2024/01/13 06:11:16;;;;;;;6.15;1.50;;;34.80;62.90;;;;;;4945741;28;20370;-71
2024/01/13 06:13:44;;;;;;;9.65;1.80;;;34.40;64.90;;;;;;4947299;28;20406;-72
2024/01/13 06:16:13;;;;;;;6.38;1.65;;;34.10;66.10;;;;;;4946231;28;20028;-71
2024/01/13 06:18:40;;;;;;;14.70;2.60;;;34.20;66.40;;;;;;4942314;28;20077;-71
2024/01/13 06:21:07;;;;;;;7.25;2.28;;;34.20;66.00;;;;;;4946876;28;20039;-71
2024/01/13 06:23:35;;;;;;;5.75;1.48;;;34.20;66.10;;;;;;4942895;28;20039;-71
2024/01/13 06:26:02;;;;;;;11.43;1.55;;;34.20;66.00;;;;;;4943722;28;20055;-72
2024/01/13 06:28:29;;;;;;;7.82;1.80;;;34.00;66.40;;;;;;4942805;28;20038;-71
2024/01/13 06:30:57;;;;;;;7.93;1.60;;;33.60;67.00;;;;;;4945225;28;20034;-72
2024/01/13 06:33:24;;;;;;;9.55;1.73;;;33.40;66.70;;;;;;4940749;28;20114;-70
2024/01/13 06:35:51;;;;;;;8.82;1.75;;;33.00;67.60;;;;;;4937385;28;20150;-71
2024/01/13 06:38:19;;;;;;;8.20;1.35;;;33.00;67.00;;;;;;4942935;28;20453;-72
2024/01/13 06:40:46;;;;;;;7.47;1.80;;;32.80;66.70;;;;;;4943246;28;20159;-73
2024/01/13 06:43:13;;;;;;;8.38;1.40;;;32.90;66.30;;;;;;4949147;28;20031;-72
2024/01/13 06:45:41;;;;;;;14.57;1.83;;;32.90;65.70;;;;;;4943619;28;20035;-71
2024/01/13 06:48:08;;;;;;;9.63;1.67;;;32.90;65.00;;;;;;4944526;28;20024;-71
2024/01/13 06:50:35;;;;;;;6.10;1.77;;;33.00;63.70;;;;;;4946305;28;20028;-71
2024/01/13 06:53:03;;;;;;;5.68;1.27;;;33.00;63.50;;;;;;4946359;28;20079;-72
2024/01/13 06:55:30;;;;;;;7.93;1.30;;;33.00;62.30;;;;;;4944035;28;20039;-71
2024/01/13 06:57:57;;;;;;;6.78;1.45;;;32.90;61.80;;;;;;4939757;28;20074;-72
2024/01/13 07:00:25;;;;;;;12.23;1.88;;;32.80;62.80;;;;;;4958836;28;20035;-72
2024/01/13 07:02:55;;;;;;;5.65;1.50;;;32.60;63.20;;;;;;4935349;28;20035;-72
2024/01/13 07:05:22;;;;;;;8.75;1.80;;;32.50;63.00;;;;;;4940246;28;20043;-71
2024/01/13 07:07:49;;;;;;;5.95;1.63;;;32.30;63.20;;;;;;4937419;28;20031;-71
2024/01/13 07:10:17;;;;;;;12.70;1.88;;;32.10;63.60;;;;;;4941451;28;20044;-71
2024/01/13 07:12:47;;;;;;;6.45;1.45;;;32.00;63.60;;;;;;4946319;28;20028;-71
2024/01/13 07:15:15;;;;;;;7.85;1.50;;;31.90;65.10;;;;;;4943086;28;20035;-72
2024/01/13 07:17:42;;;;;;;13.00;2.13;;;31.80;65.40;;;;;;4945670;28;20097;-71
2024/01/13 07:20:10;;;;;;;7.88;1.63;;;31.70;64.70;;;;;;4939001;28;20039;-71
2024/01/13 07:22:37;;;;;;;9.80;1.75;;;31.50;65.50;;;;;;4945600;29;20031;-71
2024/01/13 07:25:06;;;;;;;7.32;1.65;;;31.50;66.30;;;;;;4945765;28;20038;-72
2024/01/13 07:27:33;;;;;;;8.63;1.80;;;31.40;67.20;;;;;;4941507;28;20106;-71
2024/01/13 07:30:01;;;;;;;11.68;2.05;;;31.30;67.60;;;;;;4944138;28;20093;-71
2024/01/13 07:32:29;;;;;;;9.43;1.77;;;31.20;68.50;;;;;;4944065;28;20358;-70
2024/01/13 07:34:56;;;;;;;9.00;1.75;;;31.20;69.30;;;;;;4944647;28;20091;-72
2024/01/13 07:37:23;;;;;;;8.57;1.65;;;31.20;69.60;;;;;;4946281;28;20078;-71
2024/01/13 07:39:51;;;;;;;9.98;2.10;;;31.10;69.70;;;;;;4944891;28;20031;-71
2024/01/13 07:42:18;;;;;;;8.40;1.67;;;31.00;70.80;;;;;;4946133;28;20032;-71
2024/01/13 07:44:45;;;;;;;9.75;2.13;;;30.90;72.60;;;;;;4942205;28;20488;-71
2024/01/13 07:47:13;;;;;;;6.38;1.52;;;30.70;73.40;;;;;;4942252;28;20157;-71
2024/01/13 07:49:40;;;;;;;10.55;1.75;;;30.50;73.90;;;;;;4944026;29;20054;-71
2024/01/13 07:52:08;;;;;;;10.13;2.00;;;30.50;75.10;;;;;;4944247;28;20051;-71
2024/01/13 07:54:35;;;;;;;12.93;2.22;;;30.40;76.20;;;;;;4947663;28;20417;-71
2024/01/13 07:57:02;;;;;;;10.90;2.50;;;30.40;76.30;;;;;;4942860;28;20590;-71
2024/01/13 07:59:30;;;;;;;13.00;2.30;;;30.20;76.90;;;;;;4943783;28;20039;-73
2024/01/13 08:01:57;;;;;;;12.88;2.35;;;30.20;78.20;;;;;;4943188;28;20019;-71
2024/01/13 08:04:24;;;;;;;14.27;2.53;;;30.10;79.60;;;;;;4942578;29;20429;-73
2024/01/13 08:06:52;;;;;;;11.05;2.05;;;30.10;80.50;;;;;;4946180;29;20035;-73
2024/01/13 08:09:19;;;;;;;16.15;2.20;;;30.00;81.20;;;;;;4948211;28;20031;-72
2024/01/13 08:11:47;;;;;;;18.30;2.55;;;29.90;82.50;;;;;;4945844;29;20042;-72
2024/01/13 08:14:18;;;;;;;14.65;2.38;;;29.70;84.30;;;;;;4943327;28;20035;-71
2024/01/13 08:16:45;;;;;;;13.18;2.58;;;29.60;85.50;;;;;;4943142;28;20098;-72
2024/01/13 08:19:13;;;;;;;13.57;2.90;;;29.50;87.20;;;;;;4945552;28;20040;-72
2024/01/13 08:21:40;;;;;;;13.82;2.70;;;29.30;88.70;;;;;;4944115;29;20544;-73
2024/01/13 08:24:09;;;;;;;11.43;1.90;;;29.30;90.00;;;;;;4942976;28;20081;-72
2024/01/13 08:26:37;;;;;;;14.18;2.50;;;29.30;90.40;;;;;;4945593;28;20062;-72
2024/01/13 08:29:04;;;;;;;13.27;2.05;;;29.20;90.80;;;;;;4943064;28;20034;-72
2024/01/13 08:31:31;;;;;;;15.23;2.25;;;29.10;91.40;;;;;;4944090;29;20486;-72
2024/01/13 08:33:59;;;;;;;14.15;2.60;;;29.00;91.90;;;;;;4939703;28;20508;-71
2024/01/13 08:36:26;;;;;;;16.08;2.75;;;28.90;92.40;;;;;;4940553;28;20059;-71
2024/01/13 08:38:54;;;;;;;13.02;1.80;;;28.70;92.80;;;;;;4932407;28;20477;-71
2024/01/13 08:41:21;;;;;;;14.93;2.38;;;28.70;92.90;;;;;;4936280;28;20031;-72
2024/01/13 08:43:48;;;;;;;15.75;2.58;;;28.50;93.20;;;;;;4940785;28;20398;-71
2024/01/13 08:46:16;;;;;;;12.68;2.10;;;28.50;93.50;;;;;;4944824;28;20042;-71
2024/01/13 08:48:43;;;;;;;16.77;2.80;;;28.40;94.00;;;;;;4943645;28;20035;-71
2024/01/13 08:51:11;;;;;;;11.55;2.65;;;28.40;94.40;;;;;;4945579;28;20135;-71
2024/01/13 08:53:38;;;;;;;15.45;2.75;;;28.30;94.60;;;;;;4947334;28;20243;-70
2024/01/13 08:56:06;;;;;;;10.60;1.70;;;28.20;95.00;;;;;;4950307;28;20028;-70
2024/01/13 08:58:33;;;;;;;19.30;2.50;;;28.10;94.80;;;;;;4943207;28;20461;-70
2024/01/13 09:01:00;;;;;;;8.90;1.92;;;28.10;94.90;;;;;;4947827;28;20023;-70
2024/01/13 09:03:28;;;;;;;18.20;2.92;;;28.10;94.90;;;;;;4961163;28;20373;-71
2024/01/13 09:05:56;;;;;;;11.80;2.05;;;28.00;94.90;;;;;;4946752;28;20027;-71
2024/01/13 09:08:23;;;;;;;14.70;2.97;;;28.00;95.00;;;;;;4947930;28;20622;-70
2024/01/13 09:10:50;;;;;;;15.32;2.10;;;28.00;95.60;;;;;;4949447;29;20106;-70
2024/01/13 09:13:18;;;;;;;15.30;2.97;;;27.90;95.80;;;;;;4946917;28;20444;-70
2024/01/13 09:15:45;;;;;;;11.07;2.13;;;27.80;96.20;;;;;;4948031;28;20031;-70
2024/01/13 09:18:13;;;;;;;13.68;2.70;;;27.60;96.50;;;;;;4944663;28;20042;-69
2024/01/13 09:20:41;;;;;;;23.52;3.00;;;27.60;96.50;;;;;;4938885;28;20118;-72
2024/01/13 09:23:08;;;;;;;18.33;2.72;;;27.50;96.70;;;;;;4944447;28;20043;-71
2024/01/13 09:25:35;;;;;;;13.90;2.45;;;27.60;96.80;;;;;;4945183;28;20428;-72
2024/01/13 09:28:03;;;;;;;13.93;2.10;;;27.50;97.10;;;;;;4943934;28;20023;-71
2024/01/13 09:30:30;;;;;;;22.10;2.95;;;27.50;97.20;;;;;;4945853;28;20084;-71
2024/01/13 09:32:58;;;;;;;11.75;2.60;;;27.40;97.60;;;;;;4944240;28;20055;-71
2024/01/13 09:35:30;;;;;;;16.70;2.63;;;27.30;97.80;;;;;;4949158;28;20532;-70
2024/01/13 09:38:01;;;;;;;13.27;2.50;;;27.30;98.00;;;;;;4942961;28;20039;-71
2024/01/13 09:40:28;;;;;;;12.63;2.83;;;27.20;98.20;;;;;;4947434;28;20019;-71
2024/01/13 09:43:07;;;;;;;17.75;3.90;;;27.30;98.30;;;;;;4945212;28;20077;-71
2024/01/13 09:45:38;;;;;;;10.95;2.17;;;27.20;98.40;;;;;;4944022;28;20404;-72
2024/01/13 09:48:08;;;;;;;13.68;2.70;;;27.20;98.90;;;;;;4947919;28;20484;-72
2024/01/13 09:50:40;;;;;;;14.25;2.53;;;27.10;99.30;;;;;;4945668;28;20354;-72
2024/01/13 09:53:09;;;;;;;16.55;2.55;;;27.00;99.60;;;;;;4947902;28;20075;-72
2024/01/13 09:55:38;;;;;;;16.50;2.90;;;27.00;99.80;;;;;;4947650;28;20065;-72
2024/01/13 09:58:07;;;;;;;17.13;3.10;;;26.90;99.90;;;;;;4945454;28;20083;-72
2024/01/13 10:00:35;;;;;;;16.13;2.35;;;26.80;99.90;;;;;;4948949;28;20476;-72
2024/01/13 10:03:03;;;;;;;13.23;2.40;;;26.80;99.90;;;;;;4945184;28;20043;-72
2024/01/13 10:05:31;;;;;;;20.25;2.55;;;26.80;99.90;;;;;;4943857;28;20039;-71
2024/01/13 10:07:58;;;;;;;17.20;2.63;;;26.80;99.90;;;;;;4944194;28;20118;-72
2024/01/13 10:10:26;;;;;;;18.27;2.90;;;26.70;99.90;;;;;;4947469;28;20027;-72
2024/01/13 10:12:53;;;;;;;19.33;3.42;;;26.80;99.90;;;;;;4943180;28;20466;-72
2024/01/13 10:15:21;;;;;;;13.35;2.70;;;26.80;99.90;;;;;;4938808;28;20031;-72
2024/01/13 10:17:48;;;;;;;21.00;2.67;;;26.80;99.90;;;;;;4945027;28;20050;-72
2024/01/13 10:20:16;;;;;;;18.88;3.03;;;26.80;99.90;;;;;;4946809;28;20031;-72
2024/01/13 10:22:43;;;;;;;16.92;2.90;;;26.70;99.90;;;;;;4944472;28;20038;-72
2024/01/13 10:25:11;;;;;;;19.55;2.97;;;26.70;99.90;;;;;;4942516;28;20035;-72
2024/01/13 10:27:38;;;;;;;13.02;2.35;;;26.70;99.90;;;;;;4944982;28;20034;-72
2024/01/13 10:30:07;;;;;;;14.82;2.80;;;26.70;99.90;;;;;;4946381;28;20059;-72
2024/01/13 10:32:35;;;;;;;12.88;2.60;;;26.70;99.90;;;;;;4944366;28;20043;-71
2024/01/13 10:35:03;;;;;;;16.75;2.50;;;26.70;99.90;;;;;;4947412;29;20038;-72
2024/01/13 10:37:31;;;;;;;25.98;3.58;;;26.70;99.90;;;;;;4946028;28;20035;-72
2024/01/13 10:39:58;;;;;;;14.07;2.40;;;26.70;99.90;;;;;;4945318;28;20032;-71
2024/01/13 10:42:31;;;;;;;11.63;2.47;;;26.70;99.90;;;;;;4949278;29;20198;-71
2024/01/13 10:45:04;;;;;;;14.52;3.05;;;26.70;99.90;;;;;;4947248;28;20040;-72
2024/01/13 10:47:35;;;;;;;20.67;3.15;;;26.60;99.90;;;;;;4944610;28;20077;-72
2024/01/13 10:50:03;;;;;;;15.88;3.22;;;26.70;99.90;;;;;;4945641;28;20028;-71
2024/01/13 10:53:08;;;;;;;17.60;2.90;;;26.60;99.90;;;;;;4947686;28;20090;-72
2024/01/13 10:55:37;;;;;;;18.10;3.13;;;26.60;99.90;;;;;;4945636;28;20067;-71
2024/01/13 10:58:05;;;;;;;16.77;2.90;;;26.50;99.90;;;;;;4947870;28;20114;-71
2024/01/13 11:00:37;;;;;;;18.05;3.00;;;26.40;99.90;;;;;;4946083;28;20052;-71
2024/01/13 11:03:07;;;;;;;20.05;2.97;;;26.30;99.90;;;;;;4940690;28;20027;-71
2024/01/13 11:05:39;;;;;;;20.92;3.17;;;26.30;99.90;;;;;;4946173;28;20035;-71
2024/01/13 11:08:07;;;;;;;24.08;4.07;;;26.20;99.90;;;;;;4949597;29;20041;-70
2024/01/13 11:10:42;;;;;;;19.20;2.50;;;26.10;99.90;;;;;;4943486;28;20106;-71
2024/01/13 11:13:24;;;;;;;20.20;3.13;;;26.10;99.90;;;;;;4945723;28;20023;-72
2024/01/13 11:16:06;;;;;;;13.05;2.83;;;26.10;99.90;;;;;;4941919;28;20034;-70
2024/01/13 11:18:48;;;;;;;15.50;2.25;;;25.90;99.90;;;;;;4947850;28;20105;-71
2024/01/13 11:21:17;;;;;;;14.95;3.20;;;25.90;99.90;;;;;;4945941;29;20031;-72
2024/01/13 11:23:54;;;;;;;17.13;3.05;;;25.80;99.90;;;;;;4939956;29;20131;-71
2024/01/13 11:26:36;;;;;;;;;;;25.80;99.90;;;;;;4944591;29;20627;-71
2024/01/13 11:29:19;;;;;;;20.67;2.90;;;25.80;99.90;;;;;;4946545;29;19910;-71
2024/01/13 11:31:47;;;;;;;21.15;2.50;;;25.80;99.90;;;;;;4946467;28;20102;-69
2024/01/13 11:34:17;;;;;;;20.65;3.25;;;25.80;99.90;;;;;;4944017;29;20070;-71
2024/01/13 11:36:52;;;;;;;9.50;2.50;;;25.70;99.90;;;;;;4944295;29;20224;-71
2024/01/13 11:39:21;;;;;;;17.42;2.75;;;25.70;99.90;;;;;;4946630;28;20572;-71
2024/01/13 11:41:50;;;;;;;17.52;2.75;;;25.50;99.90;;;;;;4945049;28;20466;-71
2024/01/13 11:44:37;;;;;;;18.33;2.75;;;25.60;99.90;;;;;;4946502;28;20027;-71
2024/01/13 11:47:10;;;;;;;15.57;2.60;;;25.60;99.90;;;;;;4944449;29;20050;-72
2024/01/13 11:49:44;;;;;;;14.85;2.50;;;25.50;99.90;;;;;;4947591;29;20498;-69
2024/01/13 11:52:15;;;;;;;18.80;2.65;;;25.50;99.90;;;;;;4945670;29;20489;-71
2024/01/13 11:54:44;;;;;;;14.25;2.60;;;25.50;99.90;;;;;;4939002;29;20058;-71
2024/01/13 11:57:16;;;;;;;17.88;2.70;;;25.50;99.90;;;;;;4948314;28;20038;-71
2024/01/13 11:59:45;;;;;;;16.13;2.20;;;25.50;99.90;;;;;;4942069;29;20514;-71
2024/01/13 12:02:13;;;;;;;20.48;2.20;;;25.40;99.90;;;;;;4943579;29;20186;-71
2024/01/13 12:04:42;;;;;;;15.40;3.08;;;25.40;99.90;;;;;;4945827;29;20122;-71
2024/01/13 12:07:13;;;;;;;18.45;2.55;;;25.30;99.90;;;;;;4942311;29;20023;-71
2024/01/13 12:09:40;;;;;;;15.63;2.55;;;25.20;99.90;;;;;;4946077;28;20079;-71
2024/01/13 12:12:07;;;;;;;12.65;2.80;;;25.20;99.90;;;;;;4948437;29;20405;-71
2024/01/13 12:14:36;;;;;;;16.83;3.85;;;25.20;99.90;;;;;;4947404;29;20031;-70
2024/01/13 12:17:05;;;;;;;19.52;4.40;;;25.30;99.90;;;;;;4948255;28;20514;-74
2024/01/13 12:19:37;;;;;;;20.27;4.75;;;25.20;99.90;;;;;;4942483;28;20066;-71
2024/01/13 12:22:09;;;;;;;22.55;4.32;;;25.20;99.90;;;;;;4947791;29;20102;-73
2024/01/13 12:24:39;;;;;;;18.85;5.68;;;25.20;99.90;;;;;;4948041;28;20058;-71
2024/01/13 12:27:06;;;;;;;17.83;5.47;;;25.20;99.90;;;;;;4947320;28;20126;-71
2024/01/13 12:29:34;;;;;;;19.95;6.10;;;25.10;99.90;;;;;;4947009;29;20118;-70
2024/01/13 12:32:06;;;;;;;22.08;6.43;;;25.10;99.90;;;;;;4946575;28;20038;-71
2024/01/13 12:34:35;;;;;;;18.73;5.65;;;25.10;99.90;;;;;;4947035;29;20023;-71
2024/01/13 12:37:04;;;;;;;19.00;6.40;;;25.00;99.90;;;;;;4951787;29;20047;-70
2024/01/13 12:39:31;;;;;;;22.33;7.53;;;25.10;99.90;;;;;;4950192;29;20035;-70
2024/01/13 12:41:59;;;;;;;21.85;7.18;;;24.90;99.90;;;;;;4952352;28;20070;-70
2024/01/13 12:44:26;;;;;;;18.83;7.05;;;24.80;99.90;;;;;;4949209;28;20023;-71
2024/01/13 12:46:57;;;;;;;17.20;6.15;;;24.70;99.90;;;;;;4947579;29;20102;-71